createdAt,value
2017-08-30T00:01:16.546Z,17.13
2017-08-30T00:03:44.002Z,17.73
2017-08-30T00:06:11.449Z,17.73
2017-08-30T00:08:38.905Z,17.87
2017-08-30T00:11:06.353Z,17.97
2017-08-30T00:13:33.801Z,26.03
2017-08-30T00:16:01.253Z,16.97
2017-08-30T00:18:28.711Z,18.50
2017-08-30T00:20:56.165Z,19.23
2017-08-30T00:23:23.612Z,21.03
2017-08-30T00:26:02.968Z,18.57
2017-08-30T00:28:30.414Z,17.60
2017-08-30T00:30:57.883Z,20.53
2017-08-30T00:33:25.333Z,21.17
2017-08-30T00:35:52.790Z,22.53
2017-08-30T00:38:20.243Z,23.43
2017-08-30T00:40:47.708Z,20.83
2017-08-30T00:43:15.153Z,22.20
2017-08-30T00:45:42.610Z,22.53
2017-08-30T00:48:10.069Z,21.70
2017-08-30T00:50:37.513Z,24.40
2017-08-30T00:53:04.979Z,23.77
2017-08-30T00:55:32.426Z,29.63
2017-08-30T00:57:59.889Z,23.60
2017-08-30T01:00:27.347Z,21.60
2017-08-30T01:02:54.798Z,23.70
2017-08-30T01:05:22.249Z,22.20
2017-08-30T01:07:49.705Z,24.53
2017-08-30T01:10:17.160Z,23.67
2017-08-30T01:12:44.606Z,21.27
2017-08-30T01:15:12.063Z,21.47
2017-08-30T01:17:39.512Z,21.97
2017-08-30T01:20:06.976Z,23.07
2017-08-30T01:22:34.419Z,21.47
2017-08-30T01:25:01.887Z,22.43
2017-08-30T01:27:29.322Z,23.00
2017-08-30T01:29:56.785Z,23.53
2017-08-30T01:32:24.232Z,19.40
2017-08-30T01:34:51.681Z,26.30
2017-08-30T01:37:19.143Z,28.83
2017-08-30T01:39:46.599Z,24.30
2017-08-30T01:42:14.054Z,22.30
2017-08-30T01:44:41.505Z,27.40
2017-08-30T01:47:08.967Z,23.77
2017-08-30T01:49:36.405Z,25.43
2017-08-30T01:52:03.891Z,22.17
2017-08-30T01:54:31.330Z,25.43
2017-08-30T01:56:58.780Z,26.27
2017-08-30T01:59:26.240Z,23.53
2017-08-30T02:01:53.678Z,24.13
2017-08-30T02:04:21.135Z,23.73
2017-08-30T02:06:48.581Z,24.20
2017-08-30T02:09:16.032Z,26.63
2017-08-30T02:11:43.486Z,23.40
2017-08-30T02:14:10.954Z,31.00
2017-08-30T02:16:38.411Z,24.40
2017-08-30T02:19:05.854Z,25.73
2017-08-30T02:21:33.302Z,25.00
2017-08-30T02:24:00.749Z,24.07
2017-08-30T02:26:28.229Z,25.63
2017-08-30T02:28:55.684Z,24.47
2017-08-30T02:31:23.147Z,23.80
2017-08-30T02:33:50.594Z,30.60
2017-08-30T02:36:18.071Z,28.93
2017-08-30T02:38:45.516Z,25.80
2017-08-30T02:41:12.961Z,24.53
2017-08-30T02:43:40.422Z,31.53
2017-08-30T02:46:07.869Z,23.97
2017-08-30T02:48:35.326Z,23.30
2017-08-30T02:51:02.781Z,23.03
2017-08-30T02:53:30.248Z,24.27
2017-08-30T02:55:57.697Z,26.67
2017-08-30T02:58:25.167Z,24.73
2017-08-30T03:00:52.620Z,25.63
2017-08-30T03:03:20.062Z,24.90
2017-08-30T03:05:47.531Z,26.60
2017-08-30T03:08:14.991Z,22.53
2017-08-30T03:10:42.451Z,23.03
2017-08-30T03:13:09.902Z,22.27
2017-08-30T03:15:37.366Z,22.40
2017-08-30T03:18:04.818Z,25.97
2017-08-30T03:20:32.277Z,22.50
2017-08-30T03:22:59.729Z,27.57
2017-08-30T03:25:27.191Z,23.90
2017-08-30T03:27:54.633Z,24.43
2017-08-30T03:30:22.078Z,23.43
2017-08-30T03:32:49.531Z,25.73
2017-08-30T03:35:16.978Z,24.60
2017-08-30T03:37:44.450Z,28.90
2017-08-30T03:40:11.904Z,23.13
2017-08-30T03:42:39.358Z,26.63
2017-08-30T03:45:06.797Z,27.40
2017-08-30T03:47:34.258Z,29.30
2017-08-30T03:50:01.715Z,27.30
2017-08-30T03:52:29.181Z,29.83
2017-08-30T03:54:56.634Z,26.53
2017-08-30T03:57:24.089Z,29.13
2017-08-30T03:59:51.547Z,27.37
2017-08-30T04:02:18.994Z,25.80
2017-08-30T04:04:46.444Z,24.23
2017-08-30T04:07:13.906Z,25.43
2017-08-30T04:09:41.363Z,27.00
2017-08-30T04:12:08.814Z,24.83
2017-08-30T04:14:36.271Z,25.80
2017-08-30T04:17:03.728Z,24.13
2017-08-30T04:19:31.192Z,26.47
2017-08-30T04:21:58.645Z,33.47
2017-08-30T04:24:26.093Z,22.13
2017-08-30T04:26:53.557Z,25.70
2017-08-30T04:29:21.013Z,22.90
2017-08-30T04:31:48.474Z,24.27
2017-08-30T04:34:15.930Z,22.47
2017-08-30T04:36:43.393Z,24.37
2017-08-30T04:39:10.858Z,24.17
2017-08-30T04:41:38.312Z,23.90
2017-08-30T04:44:05.773Z,21.90
2017-08-30T04:46:33.218Z,21.57
2017-08-30T04:49:00.670Z,21.30
2017-08-30T04:51:28.114Z,21.50
2017-08-30T04:53:55.583Z,23.87
2017-08-30T04:56:23.037Z,24.70
2017-08-30T04:58:50.495Z,22.30
2017-08-30T05:01:17.953Z,21.60
2017-08-30T05:03:45.407Z,21.80
2017-08-30T05:06:12.857Z,22.00
2017-08-30T05:08:40.328Z,22.60
2017-08-30T05:11:07.777Z,21.20
2017-08-30T05:13:35.237Z,21.67
2017-08-30T05:16:02.690Z,21.00
2017-08-30T05:18:30.147Z,22.07
2017-08-30T05:20:57.601Z,20.00
2017-08-30T05:23:25.050Z,20.10
2017-08-30T05:25:52.507Z,22.40
2017-08-30T05:28:19.969Z,20.33
2017-08-30T05:30:47.417Z,20.47
2017-08-30T05:33:14.869Z,20.87
2017-08-30T05:35:42.328Z,19.67
2017-08-30T05:38:09.772Z,24.67
2017-08-30T05:40:37.240Z,21.67
2017-08-30T05:43:04.692Z,22.13
2017-08-30T05:45:32.141Z,21.43
2017-08-30T05:47:59.632Z,21.10
2017-08-30T05:50:27.083Z,20.97
2017-08-30T05:52:54.539Z,22.90
2017-08-30T05:55:21.999Z,20.93
2017-08-30T05:57:49.458Z,20.70
2017-08-30T06:00:16.909Z,20.50
2017-08-30T06:02:44.371Z,18.87
2017-08-30T06:05:11.822Z,19.50
2017-08-30T06:07:39.278Z,20.23
2017-08-30T06:10:06.726Z,19.93
2017-08-30T06:12:34.197Z,19.73
2017-08-30T06:15:01.642Z,19.27
2017-08-30T06:17:29.102Z,18.70
2017-08-30T06:19:56.558Z,21.97
2017-08-30T06:22:24.002Z,21.17
2017-08-30T06:24:51.454Z,22.17
2017-08-30T06:27:18.907Z,17.90
2017-08-30T06:29:46.370Z,19.07
2017-08-30T06:32:13.813Z,21.90
2017-08-30T06:34:41.276Z,24.03
2017-08-30T06:37:08.726Z,21.50
2017-08-30T06:39:36.171Z,19.23
2017-08-30T06:42:03.627Z,22.07
2017-08-30T06:44:31.074Z,20.50
2017-08-30T06:46:58.521Z,20.93
2017-08-30T06:49:25.978Z,24.03
2017-08-30T06:51:53.443Z,20.93
2017-08-30T06:54:20.888Z,20.30
2017-08-30T06:56:48.350Z,26.43
2017-08-30T06:59:15.802Z,24.93
2017-08-30T07:01:43.257Z,22.37
2017-08-30T07:04:10.705Z,19.17
2017-08-30T07:06:38.182Z,19.33
2017-08-30T07:09:05.637Z,18.40
2017-08-30T07:11:33.090Z,18.30
2017-08-30T07:14:00.541Z,23.80
2017-08-30T07:16:27.994Z,17.07
2017-08-30T07:18:55.450Z,18.63
2017-08-30T07:21:22.897Z,17.27
2017-08-30T07:23:50.354Z,23.50
2017-08-30T07:26:17.802Z,16.30
2017-08-30T07:28:45.250Z,17.43
2017-08-30T07:31:12.701Z,13.73
2017-08-30T07:33:40.162Z,17.80
2017-08-30T07:36:07.615Z,14.97
2017-08-30T07:38:35.077Z,15.13
2017-08-30T07:41:02.529Z,23.93
2017-08-30T07:43:29.989Z,14.97
2017-08-30T07:45:57.446Z,15.60
2017-08-30T07:48:24.897Z,16.80
2017-08-30T07:50:52.357Z,14.83
2017-08-30T07:53:19.808Z,16.33
2017-08-30T07:55:47.261Z,12.80
2017-08-30T07:58:14.706Z,15.00
2017-08-30T08:00:42.153Z,22.87
2017-08-30T08:03:09.606Z,17.80
2017-08-30T08:05:37.063Z,12.97
2017-08-30T08:08:04.522Z,15.30
2017-08-30T08:10:31.970Z,15.90
2017-08-30T08:12:59.409Z,16.43
2017-08-30T08:15:26.871Z,13.53
2017-08-30T08:17:54.313Z,13.40
2017-08-30T08:20:21.776Z,13.03
2017-08-30T08:22:49.229Z,16.53
2017-08-30T08:25:16.677Z,17.60
2017-08-30T08:27:44.136Z,13.60
2017-08-30T08:30:11.582Z,14.47
2017-08-30T08:32:39.037Z,13.30
2017-08-30T08:35:06.490Z,15.00
2017-08-30T08:37:33.938Z,13.50
2017-08-30T08:40:01.390Z,16.73
2017-08-30T08:42:28.846Z,12.73
2017-08-30T08:44:56.287Z,14.10
2017-08-30T08:47:23.754Z,12.83
2017-08-30T08:49:51.202Z,17.80
2017-08-30T08:52:18.669Z,13.53
2017-08-30T08:54:46.119Z,16.77
2017-08-30T08:57:13.566Z,14.13
2017-08-30T08:59:41.020Z,12.80
2017-08-30T09:02:08.475Z,11.77
2017-08-30T09:04:35.931Z,14.17
2017-08-30T09:07:03.372Z,12.97
2017-08-30T09:09:30.838Z,16.40
2017-08-30T09:11:58.294Z,11.93
2017-08-30T09:14:25.751Z,13.37
2017-08-30T09:16:53.203Z,16.37
2017-08-30T09:19:20.658Z,14.07
2017-08-30T09:21:48.114Z,14.50
2017-08-30T09:24:15.584Z,13.40
2017-08-30T09:26:43.034Z,13.00
2017-08-30T09:29:10.486Z,24.23
2017-08-30T09:31:37.943Z,12.87
2017-08-30T09:34:05.395Z,14.73
2017-08-30T09:36:32.845Z,12.43
2017-08-30T09:39:00.290Z,15.00
2017-08-30T09:41:27.749Z,11.40
2017-08-30T09:43:55.198Z,12.30
2017-08-30T09:46:22.653Z,13.47
2017-08-30T09:48:50.104Z,12.50
2017-08-30T09:51:17.562Z,14.40
2017-08-30T09:56:19.088Z,12.40
2017-08-30T09:58:46.545Z,16.17
2017-08-30T10:01:13.992Z,13.03
2017-08-30T10:03:41.445Z,13.73
2017-08-30T10:06:08.902Z,11.63
2017-08-30T10:08:36.364Z,11.70
2017-08-30T10:11:03.804Z,15.57
2017-08-30T10:16:05.110Z,19.03
2017-08-30T10:18:32.576Z,12.23
2017-08-30T10:21:00.031Z,17.90
2017-08-30T10:23:27.485Z,11.47
2017-08-30T10:25:54.934Z,12.27
2017-08-30T10:28:22.392Z,13.37
2017-08-30T10:30:49.837Z,13.40
2017-08-30T10:33:17.299Z,13.07
2017-08-30T10:35:44.754Z,19.20
2017-08-30T10:38:12.212Z,12.30
2017-08-30T10:40:39.653Z,10.90
2017-08-30T10:43:07.105Z,9.80
2017-08-30T10:45:34.558Z,10.27
2017-08-30T10:48:01.997Z,13.27
2017-08-30T10:50:29.449Z,13.93
2017-08-30T10:52:56.892Z,13.73
2017-08-30T10:55:24.345Z,14.97
2017-08-30T10:57:51.794Z,12.77
2017-08-30T11:00:19.242Z,14.73
2017-08-30T11:02:46.693Z,12.40
2017-08-30T11:05:14.142Z,9.87
2017-08-30T11:07:41.588Z,12.03
2017-08-30T11:10:09.042Z,9.83
2017-08-30T11:12:36.484Z,10.77
2017-08-30T11:15:03.933Z,12.60
2017-08-30T11:17:31.396Z,14.03
2017-08-30T11:19:58.838Z,10.23
2017-08-30T11:22:26.283Z,8.27
2017-08-30T11:24:53.727Z,10.83
2017-08-30T11:27:21.173Z,14.63
2017-08-30T11:29:48.622Z,14.20
2017-08-30T11:32:16.070Z,9.17
2017-08-30T11:34:43.519Z,12.03
2017-08-30T11:37:10.969Z,14.50
2017-08-30T11:39:38.410Z,9.00
2017-08-30T11:42:05.859Z,9.70
2017-08-30T11:44:33.300Z,15.33
2017-08-30T11:47:00.749Z,8.93
2017-08-30T11:49:28.209Z,11.20
2017-08-30T11:51:55.652Z,14.90
2017-08-30T11:54:23.109Z,12.53
2017-08-30T11:56:50.557Z,10.53
2017-08-30T11:59:18.007Z,11.20
2017-08-30T12:01:45.450Z,9.10
2017-08-30T12:04:12.906Z,11.00
2017-08-30T12:06:40.350Z,12.47
2017-08-30T12:09:07.796Z,9.30
2017-08-30T12:11:35.242Z,13.40
2017-08-30T12:14:02.688Z,10.97
2017-08-30T12:16:30.146Z,11.27
2017-08-30T12:18:57.598Z,15.63
2017-08-30T12:21:25.050Z,15.87
2017-08-30T12:23:52.492Z,12.50
2017-08-30T12:26:19.950Z,10.47
2017-08-30T12:28:47.396Z,12.07
2017-08-30T12:31:14.843Z,8.83
2017-08-30T12:33:42.290Z,19.07
2017-08-30T12:36:09.734Z,13.73
2017-08-30T12:38:42.829Z,11.30
2017-08-30T12:41:10.279Z,9.00
2017-08-30T12:43:37.717Z,20.17
2017-08-30T12:46:05.201Z,13.10
2017-08-30T12:48:32.645Z,9.10
2017-08-30T12:51:00.106Z,13.90
2017-08-30T12:53:27.561Z,10.30
2017-08-30T12:55:55.004Z,10.07
2017-08-30T12:58:22.450Z,11.13
2017-08-30T13:00:49.911Z,12.63
2017-08-30T13:03:17.354Z,9.43
2017-08-30T13:05:44.797Z,13.30
2017-08-30T13:08:12.254Z,14.63
2017-08-30T13:10:39.697Z,8.93
2017-08-30T13:13:07.145Z,15.33
2017-08-30T13:15:34.590Z,11.43
2017-08-30T13:18:02.046Z,11.80
2017-08-30T13:20:29.488Z,13.37
2017-08-30T13:22:56.942Z,12.70
2017-08-30T13:25:24.386Z,14.40
2017-08-30T13:27:51.862Z,12.67
2017-08-30T13:30:19.293Z,13.87
2017-08-30T13:32:46.746Z,14.37
2017-08-30T13:35:14.194Z,10.57
2017-08-30T13:37:41.643Z,9.27
2017-08-30T13:40:09.101Z,10.97
2017-08-30T13:42:36.551Z,11.17
2017-08-30T13:45:04.009Z,11.57
2017-08-30T13:47:31.459Z,13.80
2017-08-30T13:49:58.906Z,13.30
2017-08-30T13:52:26.354Z,13.93
2017-08-30T13:54:53.812Z,13.30
2017-08-30T13:57:21.250Z,8.70
2017-08-30T13:59:48.715Z,13.40
2017-08-30T14:02:16.158Z,9.00
2017-08-30T14:04:43.629Z,7.93
2017-08-30T14:07:11.073Z,14.50
2017-08-30T14:09:38.521Z,15.60
2017-08-30T14:12:05.970Z,10.37
2017-08-30T14:14:33.421Z,11.27
2017-08-30T14:17:00.874Z,13.37
2017-08-30T14:19:28.318Z,9.03
2017-08-30T14:21:55.782Z,18.33
2017-08-30T14:24:23.238Z,11.60
2017-08-30T14:26:50.960Z,11.70
2017-08-30T14:29:18.393Z,10.63
2017-08-30T14:31:45.846Z,13.83
2017-08-30T14:34:13.297Z,11.23
2017-08-30T14:36:40.754Z,10.70
2017-08-30T14:39:08.202Z,10.53
2017-08-30T14:41:35.663Z,11.03
2017-08-30T14:44:03.111Z,14.03
2017-08-30T14:46:30.561Z,10.67
2017-08-30T14:48:58.016Z,13.97
2017-08-30T14:51:25.457Z,13.97
2017-08-30T14:53:52.923Z,14.10
2017-08-30T14:56:20.361Z,11.10
2017-08-30T14:58:47.817Z,14.27
2017-08-30T15:01:15.257Z,8.93
2017-08-30T15:03:42.705Z,7.87
2017-08-30T15:06:10.157Z,12.40
2017-08-30T15:08:37.618Z,11.67
2017-08-30T15:11:05.070Z,16.53
2017-08-30T15:13:32.532Z,13.67
2017-08-30T15:15:59.983Z,11.53
2017-08-30T15:18:27.434Z,16.77
2017-08-30T15:20:54.883Z,10.30
2017-08-30T15:23:22.346Z,14.67
2017-08-30T15:25:49.799Z,10.77
2017-08-30T15:28:17.246Z,10.47
2017-08-30T15:30:44.703Z,11.90
2017-08-30T15:33:12.146Z,20.07
2017-08-30T15:35:39.595Z,10.00
2017-08-30T15:38:07.039Z,14.03
2017-08-30T15:40:34.492Z,15.37
2017-08-30T15:43:01.937Z,10.47
2017-08-30T15:45:29.399Z,14.23
2017-08-30T15:47:56.856Z,12.60
2017-08-30T15:50:24.306Z,10.40
2017-08-30T15:52:51.764Z,10.53
2017-08-30T15:55:19.223Z,12.03
2017-08-30T15:57:46.681Z,10.87
2017-08-30T16:00:14.136Z,13.30
2017-08-30T16:02:41.585Z,11.90
2017-08-30T16:05:09.034Z,10.40
2017-08-30T16:07:36.482Z,18.83
2017-08-30T16:10:03.943Z,11.23
2017-08-30T16:12:31.385Z,8.47
2017-08-30T16:14:58.844Z,14.00
2017-08-30T16:17:26.284Z,10.80
2017-08-30T16:19:53.730Z,9.90
2017-08-30T16:22:21.182Z,10.77
2017-08-30T16:24:48.626Z,13.73
2017-08-30T16:27:16.074Z,11.93
2017-08-30T16:29:43.516Z,11.17
2017-08-30T16:32:10.973Z,15.20
2017-08-30T16:34:38.429Z,11.30
2017-08-30T16:37:05.885Z,12.83
2017-08-30T16:39:33.326Z,11.50
2017-08-30T16:42:00.771Z,10.87
2017-08-30T16:44:28.226Z,11.47
2017-08-30T16:46:55.676Z,9.90
2017-08-30T16:49:23.127Z,14.03
2017-08-30T16:51:51.377Z,15.70
2017-08-30T16:54:18.827Z,13.03
2017-08-30T16:56:46.278Z,17.23
2017-08-30T16:59:13.737Z,10.57
2017-08-30T17:01:41.183Z,16.63
2017-08-30T17:04:08.626Z,11.73
2017-08-30T17:06:36.073Z,16.83
2017-08-30T17:09:03.524Z,13.27
2017-08-30T17:11:30.978Z,19.93
2017-08-30T17:13:58.434Z,16.37
2017-08-30T17:16:25.885Z,22.53
2017-08-30T17:18:53.346Z,14.30
2017-08-30T17:21:20.815Z,11.80
2017-08-30T17:23:48.263Z,14.20
2017-08-30T17:26:15.709Z,15.23
2017-08-30T17:28:43.158Z,16.60
2017-08-30T17:31:10.606Z,13.17
2017-08-30T17:33:38.061Z,14.07
2017-08-30T17:36:05.526Z,13.63
2017-08-30T17:38:35.305Z,13.73
2017-08-30T17:41:02.750Z,10.80
2017-08-30T17:43:30.205Z,15.23
2017-08-30T17:45:57.656Z,21.07
2017-08-30T17:50:11.981Z,11.30
2017-08-30T17:52:39.438Z,19.70
2017-08-30T17:55:06.892Z,25.93
2017-08-30T17:57:34.334Z,14.10
2017-08-30T18:00:01.793Z,12.87
2017-08-30T18:02:29.242Z,17.63
2017-08-30T18:04:56.697Z,12.20
2017-08-30T18:07:24.235Z,13.90
2017-08-30T18:09:51.706Z,19.00
2017-08-30T18:12:19.212Z,52.70
2017-08-30T18:14:46.672Z,95.10
2017-08-30T18:17:14.127Z,16.77
2017-08-30T18:19:41.603Z,20.20
2017-08-30T18:22:09.042Z,15.30
2017-08-30T18:24:36.498Z,18.43
2017-08-30T18:27:03.942Z,17.77
2017-08-30T18:29:31.626Z,14.27
2017-08-30T18:31:59.076Z,13.60
2017-08-30T18:34:26.642Z,12.47
2017-08-30T18:36:54.962Z,19.90
2017-08-30T18:39:22.415Z,17.90
2017-08-30T18:41:49.862Z,13.07
2017-08-30T18:44:17.313Z,10.90
2017-08-30T18:46:44.762Z,12.10
2017-08-30T18:49:12.219Z,14.47
2017-08-30T18:51:39.666Z,15.50
2017-08-30T18:54:07.109Z,11.63
2017-08-30T18:56:34.569Z,18.83
2017-08-30T18:59:02.012Z,12.67
2017-08-30T19:01:29.483Z,14.73
2017-08-30T19:03:56.935Z,19.33
2017-08-30T19:06:25.287Z,17.13
2017-08-30T19:08:52.810Z,12.70
2017-08-30T19:11:20.259Z,14.90
2017-08-30T19:13:47.713Z,14.27
2017-08-30T19:16:15.169Z,14.77
2017-08-30T19:18:42.636Z,10.80
2017-08-30T19:21:10.089Z,19.20
2017-08-30T19:23:37.537Z,18.07
2017-08-30T19:26:04.986Z,19.63
2017-08-30T19:28:32.446Z,14.87
2017-08-30T19:30:59.906Z,12.90
2017-08-30T19:33:27.352Z,16.83
2017-08-30T19:35:54.831Z,16.53
2017-08-30T19:38:22.294Z,14.90
2017-08-30T19:40:49.738Z,10.13
2017-08-30T19:43:17.201Z,11.67
2017-08-30T19:45:44.641Z,12.23
2017-08-30T19:48:12.094Z,14.93
2017-08-30T19:50:39.538Z,17.43
2017-08-30T19:53:07.005Z,14.23
2017-08-30T19:55:34.450Z,14.90
2017-08-30T19:58:01.901Z,12.00
2017-08-30T20:00:29.396Z,16.30
2017-08-30T20:02:56.860Z,15.57
2017-08-30T20:05:24.315Z,12.03
2017-08-30T20:07:51.766Z,17.53
2017-08-30T20:10:19.218Z,9.97
2017-08-30T20:12:46.721Z,16.80
2017-08-30T20:15:14.634Z,11.90
2017-08-30T20:17:42.072Z,9.97
2017-08-30T20:20:09.528Z,13.27
2017-08-30T20:22:36.975Z,14.40
2017-08-30T20:25:04.441Z,15.77
2017-08-30T20:27:32.155Z,18.97
2017-08-30T20:29:59.603Z,14.80
2017-08-30T20:32:27.059Z,13.90
2017-08-30T20:34:54.499Z,13.40
2017-08-30T20:37:21.974Z,12.87
2017-08-30T20:39:49.408Z,19.97
2017-08-30T20:42:16.881Z,13.47
2017-08-30T20:44:44.334Z,12.93
2017-08-30T20:47:11.782Z,14.20
2017-08-30T20:49:39.243Z,12.97
2017-08-30T20:52:06.704Z,10.13
2017-08-30T20:54:34.426Z,12.93
2017-08-30T20:57:01.861Z,13.43
2017-08-30T20:59:29.321Z,15.63
2017-08-30T21:01:56.766Z,14.67
2017-08-30T21:04:24.396Z,10.63
2017-08-30T21:06:52.271Z,10.90
2017-08-30T21:09:19.726Z,13.30
2017-08-30T21:11:47.174Z,10.83
2017-08-30T21:14:14.626Z,13.70
2017-08-30T21:16:42.078Z,16.40
2017-08-30T21:19:09.534Z,12.23
2017-08-30T21:21:36.977Z,16.93
2017-08-30T21:24:04.437Z,14.13
2017-08-30T21:26:31.882Z,14.20
2017-08-30T21:28:59.329Z,16.50
2017-08-30T21:31:26.768Z,11.80
2017-08-30T21:33:54.221Z,9.40
2017-08-30T21:36:21.665Z,16.50
2017-08-30T21:38:49.136Z,13.30
2017-08-30T21:41:16.580Z,9.63
2017-08-30T21:43:44.020Z,14.00
2017-08-30T21:46:11.473Z,12.83
2017-08-30T21:48:38.926Z,13.33
2017-08-30T21:51:06.378Z,10.87
2017-08-30T21:53:33.826Z,8.07
2017-08-30T21:56:01.277Z,11.30
2017-08-30T21:58:28.730Z,11.55
2017-08-30T22:00:57.058Z,11.93
2017-08-30T22:03:24.501Z,12.73
2017-08-30T22:05:51.949Z,12.40
2017-08-30T22:08:19.393Z,8.80
2017-08-30T22:10:46.850Z,9.03
2017-08-30T22:13:14.292Z,9.37
2017-08-30T22:15:41.794Z,9.93
2017-08-30T22:18:09.244Z,7.63
2017-08-30T22:20:36.703Z,14.30
2017-08-30T22:23:04.165Z,10.03
2017-08-30T22:25:31.613Z,17.20
2017-08-30T22:27:59.062Z,10.73
2017-08-30T22:30:26.515Z,10.53
2017-08-30T22:32:53.988Z,9.50
2017-08-30T22:35:21.552Z,13.37
2017-08-30T22:37:49.014Z,12.60
2017-08-30T22:40:16.453Z,9.30
2017-08-30T22:42:43.902Z,7.77
2017-08-30T22:45:11.345Z,8.50
2017-08-30T22:47:38.839Z,10.17
2017-08-30T22:50:06.278Z,9.00
2017-08-30T22:52:33.730Z,7.00
2017-08-30T22:55:01.198Z,6.53
2017-08-30T22:57:28.658Z,13.10
2017-08-30T22:59:56.103Z,6.87
2017-08-30T23:02:23.553Z,6.47
2017-08-30T23:04:50.998Z,10.17
2017-08-30T23:07:18.483Z,7.37
2017-08-30T23:09:45.921Z,9.10
2017-08-30T23:12:13.377Z,11.57
2017-08-30T23:14:40.827Z,9.27
2017-08-30T23:17:08.274Z,6.83
2017-08-30T23:19:35.714Z,14.13
2017-08-30T23:22:03.233Z,10.63
2017-08-30T23:24:30.678Z,4.93
2017-08-30T23:26:58.126Z,9.23
2017-08-30T23:29:25.574Z,9.37
2017-08-30T23:31:53.049Z,9.80
2017-08-30T23:34:20.517Z,6.40
2017-08-30T23:36:47.962Z,6.60
2017-08-30T23:39:15.417Z,7.23
2017-08-30T23:41:42.991Z,5.20
2017-08-30T23:44:10.434Z,4.67
2017-08-30T23:46:37.872Z,5.47
2017-08-30T23:49:05.326Z,9.53
2017-08-30T23:51:32.768Z,7.43
2017-08-30T23:54:00.213Z,9.00
2017-08-30T23:56:27.659Z,4.10
2017-08-30T23:58:55.111Z,9.33
